Time;durP1;ratioP1;P1;durP2;ratioP2;P2;SDS_P1;SDS_P2;PMS_P1;PMS_P2;Temp;Humidity;BMP_temperature;BMP_pressure;BME280_temperature;BME280_humidity;BME280_pressure;Samples;Min_cycle;Max_cycle;Signal;HPM_P1;HPM_P2
2023/07/04 01:08:01;;;;;;;8.50;6.35;;;;;;;14.34;100.00;100147.88;4911584;23;20116;-83
2023/07/04 01:10:32;;;;;;;9.90;6.63;;;;;;;14.39;100.00;100143.22;4897581;23;20061;-84
2023/07/04 01:13:00;;;;;;;9.70;6.90;;;;;;;14.44;100.00;100146.53;4938203;23;20503;-83
2023/07/04 01:15:30;;;;;;;9.70;6.47;;;;;;;14.46;100.00;100133.19;4904775;29;20044;-84
2023/07/04 01:17:58;;;;;;;14.40;7.55;;;;;;;14.46;100.00;100130.53;4901558;29;20041;-84
2023/07/04 01:20:25;;;;;;;11.70;7.00;;;;;;;14.55;100.00;100130.16;4891216;29;20070;-83
2023/07/04 01:22:59;;;;;;;9.20;7.03;;;;;;;14.60;100.00;100136.97;4894927;29;20234;-84
2023/07/04 01:25:37;;;;;;;9.75;7.38;;;;;;;14.52;100.00;100135.59;4904908;29;20123;-83
2023/07/04 01:28:04;;;;;;;9.40;6.65;;;;;;;14.50;100.00;100143.63;4896190;29;20496;-82
2023/07/04 01:30:37;;;;;;;9.45;6.35;;;;;;;14.48;100.00;100132.22;4891590;29;20134;-83
2023/07/04 01:33:04;;;;;;;11.50;7.30;;;;;;;14.47;100.00;100126.97;4899614;29;20556;-85
2023/07/04 01:35:33;;;;;;;9.13;6.82;;;;;;;14.54;100.00;100139.03;4886324;29;20050;-85
2023/07/04 01:38:00;;;;;;;12.50;7.10;;;;;;;14.46;100.00;100131.44;4897948;29;20048;-84
2023/07/04 01:40:27;;;;;;;12.32;6.85;;;;;;;14.44;100.00;100122.59;4922813;29;20431;-84
2023/07/04 01:42:54;;;;;;;11.57;6.75;;;;;;;14.43;100.00;100123.53;4891200;29;20044;-84
2023/07/04 01:45:20;;;;;;;10.10;6.07;;;;;;;14.42;100.00;100116.50;4892236;29;20530;-82
2023/07/04 01:47:48;;;;;;;9.63;7.43;;;;;;;14.44;100.00;100117.28;4881244;29;20048;-81
2023/07/04 01:50:15;;;;;;;10.70;6.43;;;;;;;14.44;100.00;100109.31;4900288;29;20099;-82
2023/07/04 01:52:42;;;;;;;11.02;7.40;;;;;;;14.46;100.00;100107.50;4911551;29;20200;-83
2023/07/04 01:55:10;;;;;;;10.07;6.97;;;;;;;14.45;100.00;100112.81;4914157;29;20051;-84
2023/07/04 01:57:37;;;;;;;9.55;6.63;;;;;;;14.44;100.00;100111.97;4911142;29;20054;-82
2023/07/04 02:00:06;;;;;;;8.52;6.68;;;;;;;14.44;100.00;100109.31;4885354;29;20220;-83
2023/07/04 02:02:32;;;;;;;11.25;6.90;;;;;;;14.48;100.00;100104.78;4895387;29;20457;-84
2023/07/04 02:04:59;;;;;;;10.32;6.95;;;;;;;14.50;100.00;100106.41;4903574;29;20140;-82
2023/07/04 02:07:26;;;;;;;11.43;7.30;;;;;;;14.54;100.00;100094.69;4912690;29;20039;-84
2023/07/04 02:09:52;;;;;;;12.05;7.85;;;;;;;14.60;100.00;100083.78;4914973;29;20040;-83
2023/07/04 02:12:19;;;;;;;11.35;6.22;;;;;;;14.56;100.00;100087.53;4895726;29;20583;-84
2023/07/04 02:14:46;;;;;;;10.75;6.90;;;;;;;14.58;100.00;100087.47;4907799;29;20083;-82
2023/07/04 02:17:13;;;;;;;8.43;6.28;;;;;;;14.58;100.00;100085.66;4922543;29;20048;-84
2023/07/04 02:19:39;;;;;;;10.38;5.72;;;;;;;14.66;100.00;100079.13;4886468;29;20096;-81
2023/07/04 02:22:07;;;;;;;7.53;5.68;;;;;;;14.70;99.59;100081.56;4910809;29;20071;-82
2023/07/04 02:24:34;;;;;;;8.18;5.47;;;;;;;14.76;98.38;100089.25;4907582;29;20042;-82
2023/07/04 02:27:01;;;;;;;12.95;6.03;;;;;;;14.76;96.08;100089.25;4888250;29;20078;-83
2023/07/04 02:29:27;;;;;;;9.77;5.75;;;;;;;14.89;93.69;100090.41;4889431;29;20070;-81
2023/07/04 02:31:54;;;;;;;7.55;5.10;;;;;;;15.12;90.23;100085.78;4915593;29;20048;-82
2023/07/04 02:34:21;;;;;;;7.10;5.18;;;;;;;15.16;88.38;100085.56;4894686;29;20047;-82
2023/07/04 02:36:47;;;;;;;12.15;5.47;;;;;;;15.20;88.32;100083.63;4898603;29;20054;-80
2023/07/04 02:39:14;;;;;;;8.38;5.22;;;;;;;15.25;86.75;100089.59;4893272;29;20064;-82
2023/07/04 02:41:41;;;;;;;8.98;4.65;;;;;;;15.31;86.41;100091.97;4908728;29;20065;-82
2023/07/04 02:44:08;;;;;;;11.23;4.78;;;;;;;15.32;85.82;100104.31;4919941;29;20048;-82
2023/07/04 02:46:35;;;;;;;11.50;5.60;;;;;;;15.33;85.12;100094.53;4925626;29;20040;-80
2023/07/04 02:49:04;;;;;;;9.75;5.28;;;;;;;15.40;84.27;100095.97;4897922;29;20053;-81
2023/07/04 02:51:32;;;;;;;8.30;4.78;;;;;;;15.39;84.35;100095.09;4916587;29;20044;-83
2023/07/04 02:53:59;;;;;;;9.68;5.22;;;;;;;15.41;82.94;100098.53;4921178;29;20037;-83
2023/07/04 02:56:26;;;;;;;8.38;4.47;;;;;;;15.54;81.21;100103.25;4882497;29;20074;-82
2023/07/04 02:58:53;;;;;;;8.98;5.25;;;;;;;15.66;80.78;100098.22;4899888;29;20051;-81
2023/07/04 03:01:19;;;;;;;10.02;5.65;;;;;;;15.79;76.71;100110.91;4897984;29;20054;-82
2023/07/04 03:03:46;;;;;;;12.68;5.00;;;;;;;15.93;76.29;100103.94;4914818;29;20071;-81
2023/07/04 03:06:13;;;;;;;9.50;4.90;;;;;;;15.95;75.72;100107.38;4912778;29;20904;-81
2023/07/04 03:08:40;;;;;;;9.07;5.75;;;;;;;16.10;72.76;100097.75;4918025;29;20103;-83
2023/07/04 03:11:06;;;;;;;8.48;5.00;;;;;;;16.16;73.19;100097.44;4901281;29;20056;-80
2023/07/04 03:13:34;;;;;;;9.00;4.78;;;;;;;16.20;72.62;100101.63;4903310;29;20131;-83
2023/07/04 03:16:01;;;;;;;9.23;4.93;;;;;;;16.16;72.03;100094.75;4913948;29;20048;-82
2023/07/04 03:18:27;;;;;;;8.50;4.75;;;;;;;16.23;72.31;100096.16;4891483;29;20127;-81
2023/07/04 03:20:54;;;;;;;10.43;4.90;;;;;;;16.27;72.93;100095.03;4893526;29;20067;-82
2023/07/04 03:23:22;;;;;;;13.27;5.20;;;;;;;16.32;71.69;100093.00;4904393;29;20048;-84
2023/07/04 03:25:51;;;;;;;10.20;5.22;;;;;;;16.33;72.19;100094.72;4929367;29;20041;-80
2023/07/04 03:28:19;;;;;;;9.32;5.45;;;;;;;16.41;71.98;100098.78;4897287;29;20075;-83
2023/07/04 03:30:46;;;;;;;8.23;4.82;;;;;;;16.42;72.12;100098.72;4896745;29;20047;-83
2023/07/04 03:33:13;;;;;;;7.43;4.45;;;;;;;16.35;72.50;100096.44;4935790;29;20047;-85
2023/07/04 03:35:39;;;;;;;9.45;5.00;;;;;;;16.39;73.76;100104.19;4909484;29;20052;-84
2023/07/04 03:38:26;;;;;;;11.52;5.43;;;;;;;16.43;71.73;100107.56;4902940;29;20472;-86
2023/07/04 03:40:54;;;;;;;8.43;4.65;;;;;;;16.46;71.32;100100.25;4923578;29;20054;-84
2023/07/04 03:43:32;;;;;;;9.55;4.82;;;;;;;16.57;71.65;100107.69;4899380;29;20041;-84
2023/07/04 03:45:59;;;;;;;11.18;5.07;;;;;;;16.66;68.83;100101.00;4929571;29;20056;-82
2023/07/04 03:48:28;;;;;;;12.07;5.30;;;;;;;16.61;70.42;100101.25;4906944;29;20563;-82
2023/07/04 03:50:56;;;;;;;10.05;5.15;;;;;;;16.59;69.87;100112.00;4912657;29;20054;-83
2023/07/04 03:53:24;;;;;;;8.15;4.85;;;;;;;16.61;70.01;100114.56;4896126;29;20143;-81
2023/07/04 03:55:52;;;;;;;9.52;4.50;;;;;;;16.61;70.20;100114.56;4888272;29;20253;-81
2023/07/04 03:58:48;;;;;;;9.48;4.95;;;;;;;16.64;70.19;100122.41;4902384;29;20032;-82
2023/07/04 04:01:19;;;;;;;11.73;4.75;;;;;;;16.76;70.74;100118.25;4896990;29;20044;-83
2023/07/04 04:03:53;;;;;;;;;;;;;;;16.87;69.65;100126.53;4884057;29;20067;-82
2023/07/04 04:06:23;;;;;;;10.07;4.90;;;;;;;16.81;70.56;100125.03;4898702;29;19934;-84
2023/07/04 04:08:51;;;;;;;8.07;4.65;;;;;;;16.79;70.64;100123.41;4904656;29;20409;-83
2023/07/04 04:11:20;;;;;;;9.27;4.93;;;;;;;16.72;70.43;100132.69;4898375;29;20326;-83
2023/07/04 04:13:46;;;;;;;8.20;4.65;;;;;;;16.70;71.67;100143.44;4900220;29;20044;-83
2023/07/04 04:16:13;;;;;;;9.32;4.75;;;;;;;16.71;71.37;100147.84;4910143;29;20048;-82
2023/07/04 04:18:40;;;;;;;8.15;4.85;;;;;;;16.82;69.30;100144.59;4933377;29;20048;-81
2023/07/04 04:21:13;;;;;;;7.32;4.47;;;;;;;16.82;70.76;100149.94;4907220;29;20103;-84
2023/07/04 04:23:43;;;;;;;12.82;4.68;;;;;;;16.85;72.31;100150.63;4901953;29;20047;-82
2023/07/04 04:26:14;;;;;;;9.13;4.53;;;;;;;16.90;68.01;100150.38;4896420;29;20051;-81
2023/07/04 04:28:43;;;;;;;11.43;4.75;;;;;;;16.96;69.84;100160.69;4925550;29;20040;-83
2023/07/04 04:31:18;;;;;;;13.27;5.45;;;;;;;16.89;70.93;100165.50;4904837;29;20096;-86
2023/07/04 04:33:47;;;;;;;13.02;5.55;;;;;;;16.91;71.17;100170.78;4898614;29;20045;-82
2023/07/04 04:36:17;;;;;;;10.10;5.03;;;;;;;16.94;72.01;100181.28;4880295;29;20079;-86
2023/07/04 04:38:53;;;;;;;9.77;5.32;;;;;;;17.01;71.06;100192.50;4915689;29;20119;-85
2023/07/04 04:41:23;;;;;;;11.80;4.97;;;;;;;17.06;70.85;100206.44;4908305;29;20082;-81
2023/07/04 04:43:50;;;;;;;8.77;5.72;;;;;;;17.14;73.12;100206.88;4925480;29;20480;-83
2023/07/04 04:46:17;;;;;;;10.07;4.78;;;;;;;17.05;76.44;100221.56;4919710;29;20048;-81
2023/07/04 04:48:44;;;;;;;10.10;4.90;;;;;;;17.04;74.61;100214.53;4896593;29;20594;-82
2023/07/04 04:51:12;;;;;;;9.15;5.20;;;;;;;16.97;77.34;100222.94;4901723;29;20056;-81
2023/07/04 04:53:44;;;;;;;6.40;4.43;;;;;;;17.06;75.63;100227.78;4910394;29;20116;-81
2023/07/04 04:56:12;;;;;;;8.10;5.00;;;;;;;17.02;76.11;100228.91;4898802;29;20506;-82
2023/07/04 04:58:43;;;;;;;8.02;4.47;;;;;;;16.91;76.80;100226.81;4898561;29;20044;-81
2023/07/04 05:01:14;;;;;;;11.18;4.60;;;;;;;16.92;78.34;100235.69;4909837;29;20047;-82
2023/07/04 05:03:45;;;;;;;7.50;4.50;;;;;;;16.85;79.30;100241.34;4901949;29;20044;-82
2023/07/04 05:06:12;;;;;;;8.90;4.25;;;;;;;16.84;79.44;100257.44;4921418;29;20511;-83
2023/07/04 05:08:39;;;;;;;8.65;4.28;;;;;;;16.81;79.70;100262.91;4892101;29;20099;-81
2023/07/04 05:11:07;;;;;;;8.25;3.90;;;;;;;16.71;79.31;100264.34;4890301;29;20053;-82
2023/07/04 05:13:36;;;;;;;7.43;4.88;;;;;;;16.63;81.07;100264.69;4914733;29;20036;-83
2023/07/04 05:16:05;;;;;;;6.70;3.92;;;;;;;16.70;78.96;100257.28;4923083;29;20050;-81
2023/07/04 05:18:34;;;;;;;6.35;3.95;;;;;;;16.58;80.32;100258.75;4918839;29;20043;-83
2023/07/04 05:21:03;;;;;;;6.88;3.40;;;;;;;16.61;82.30;100258.59;4897917;29;20527;-84
2023/07/04 05:23:31;;;;;;;4.82;3.55;;;;;;;16.56;81.01;100260.63;4896828;29;20070;-81
2023/07/04 05:26:05;;;;;;;4.82;2.80;;;;;;;16.53;79.11;100261.66;4905889;29;20068;-81
2023/07/04 05:28:34;;;;;;;7.68;2.90;;;;;;;16.67;79.72;100258.28;4890787;29;20051;-82
2023/07/04 05:31:11;;;;;;;5.60;3.08;;;;;;;16.84;77.81;100268.97;4942369;29;20480;-84
2023/07/04 05:33:42;;;;;;;5.75;2.85;;;;;;;16.88;78.23;100266.97;4905579;29;20053;-83
2023/07/04 05:36:12;;;;;;;4.60;3.28;;;;;;;16.97;74.57;100268.31;4909118;29;20041;-82
2023/07/04 05:38:39;;;;;;;4.22;2.20;;;;;;;17.11;75.67;100273.78;4928639;29;20050;-84
2023/07/04 05:41:11;;;;;;;2.55;2.20;;;;;;;17.25;74.71;100276.56;4906089;29;20048;-80
2023/07/04 05:43:39;;;;;;;4.80;2.20;;;;;;;17.52;72.03;100268.00;4915554;29;20059;-80
2023/07/04 05:46:07;;;;;;;5.40;1.98;;;;;;;18.28;68.82;100271.69;4892152;29;20061;-81
2023/07/04 05:48:35;;;;;;;3.95;1.80;;;;;;;18.74;66.53;100271.63;4882857;29;20112;-83
2023/07/04 05:51:04;;;;;;;3.33;1.45;;;;;;;18.69;67.15;100284.47;4903924;29;20522;-81
2023/07/04 05:53:33;;;;;;;2.03;1.65;;;;;;;18.30;66.92;100272.44;4884808;29;20044;-80
2023/07/04 05:56:21;;;;;;;2.97;1.98;;;;;;;18.12;70.43;100295.78;4910831;29;20116;-83
2023/07/04 05:58:50;;;;;;;6.30;2.17;;;;;;;17.66;71.20;100276.97;4899926;29;20325;-83
2023/07/04 06:01:27;;;;;;;2.80;1.70;;;;;;;17.34;74.70;100289.44;4915793;29;20052;-82
2023/07/04 06:03:55;;;;;;;5.15;1.70;;;;;;;17.34;73.41;100301.91;4894792;29;20088;-82
2023/07/04 06:06:26;;;;;;;4.20;2.00;;;;;;;17.22;75.89;100298.06;4917011;29;20403;-83
2023/07/04 06:08:55;;;;;;;3.90;1.92;;;;;;;17.08;75.40;100296.16;4908160;29;20044;-82
2023/07/04 06:11:26;;;;;;;4.20;1.83;;;;;;;17.33;74.47;100289.50;4919850;29;20044;-83
2023/07/04 06:13:53;;;;;;;4.15;1.83;;;;;;;18.12;72.77;100292.25;4910967;29;20033;-83
2023/07/04 06:16:20;;;;;;;3.20;1.77;;;;;;;18.62;68.23;100296.44;4897977;29;20155;-81
2023/07/04 06:18:48;;;;;;;3.47;1.80;;;;;;;19.01;68.17;100288.72;4911026;29;20046;-82
2023/07/04 06:21:21;;;;;;;4.32;2.67;;;;;;;19.03;65.69;100300.19;4896845;29;20044;-82
2023/07/04 06:24:07;;;;;;;4.05;1.67;;;;;;;19.20;66.88;100301.84;4893854;29;20492;-82
2023/07/04 06:26:34;;;;;;;3.35;1.70;;;;;;;19.24;63.10;100297.13;4893609;29;20067;-84
2023/07/04 06:29:01;;;;;;;8.18;2.08;;;;;;;19.36;62.07;100305.28;4899220;29;20043;-84
2023/07/04 06:31:28;;;;;;;16.60;3.08;;;;;;;19.46;62.28;100294.84;4902538;29;20067;-83
2023/07/04 06:33:55;;;;;;;4.90;2.40;;;;;;;19.63;64.75;100304.53;4883713;29;20516;-82
2023/07/04 06:36:23;;;;;;;6.93;2.40;;;;;;;19.70;62.30;100308.53;4904336;29;20040;-82
2023/07/04 06:38:50;;;;;;;5.07;2.13;;;;;;;19.73;62.73;100313.69;4908023;29;20070;-82
2023/07/04 06:41:17;;;;;;;3.80;2.10;;;;;;;19.94;61.04;100314.16;4913013;29;20044;-84
2023/07/04 06:43:46;;;;;;;3.03;1.50;;;;;;;20.02;60.90;100313.66;4919260;29;20044;-81
2023/07/04 06:46:15;;;;;;;5.60;1.73;;;;;;;20.29;60.68;100324.41;4902916;29;20566;-81
2023/07/04 06:48:42;;;;;;;3.72;1.77;;;;;;;20.02;61.85;100319.03;4892055;29;20420;-83
2023/07/04 06:51:12;;;;;;;2.90;2.38;;;;;;;20.03;59.54;100312.69;4918242;29;20047;-82
2023/07/04 06:53:40;;;;;;;4.38;1.67;;;;;;;20.23;60.40;100322.97;4886113;29;20380;-82
2023/07/04 06:56:11;;;;;;;5.35;2.20;;;;;;;20.15;60.14;100322.59;4902421;29;20040;-82
2023/07/04 06:58:47;;;;;;;3.92;1.85;;;;;;;20.44;60.20;100318.03;4889092;29;20081;-82
2023/07/04 07:01:15;;;;;;;4.55;2.05;;;;;;;20.66;58.06;100333.56;4903885;29;20048;-84
2023/07/04 07:03:42;;;;;;;3.78;1.60;;;;;;;20.65;57.13;100329.16;4916090;29;20068;-80
2023/07/04 07:06:10;;;;;;;3.03;1.75;;;;;;;20.92;56.30;100338.00;4914023;29;20047;-81
2023/07/04 07:08:38;;;;;;;3.58;2.00;;;;;;;20.89;57.09;100329.31;4902814;29;20242;-80
2023/07/04 07:11:10;;;;;;;3.40;1.75;;;;;;;20.86;55.47;100334.91;4905796;29;20044;-83
2023/07/04 07:13:38;;;;;;;4.90;1.65;;;;;;;20.96;56.28;100336.84;4894451;29;20044;-82
2023/07/04 07:16:13;;;;;;;1.92;1.58;;;;;;;20.98;55.81;100329.53;4893893;29;20547;-82
2023/07/04 07:18:41;;;;;;;2.83;1.60;;;;;;;21.05;54.02;100335.34;4918253;29;20040;-82
2023/07/04 07:21:10;;;;;;;3.63;2.22;;;;;;;21.30;54.65;100340.75;4920182;29;20474;-80
2023/07/04 07:23:38;;;;;;;3.35;1.33;;;;;;;21.13;52.48;100350.94;4902643;29;20036;-80
2023/07/04 07:26:08;;;;;;;2.85;1.73;;;;;;;21.06;51.31;100345.13;4925341;29;20039;-83
2023/07/04 07:28:39;;;;;;;3.40;1.60;;;;;;;20.89;51.44;100345.41;4913407;29;20111;-82
2023/07/04 07:31:19;;;;;;;4.55;1.50;;;;;;;21.07;54.35;100362.97;4914425;29;20049;-82
2023/07/04 07:33:48;;;;;;;3.80;2.03;;;;;;;21.24;49.98;100362.66;4907363;29;20628;-81
2023/07/04 07:36:20;;;;;;;3.13;1.60;;;;;;;21.40;50.03;100361.63;4913367;29;20041;-82
2023/07/04 07:38:48;;;;;;;4.03;1.40;;;;;;;20.98;50.17;100363.59;4897627;29;20072;-81
2023/07/04 07:41:15;;;;;;;1.73;1.60;;;;;;;21.19;50.70;100362.13;4908188;29;20056;-81
2023/07/04 07:43:42;;;;;;;2.85;1.50;;;;;;;21.28;49.14;100374.94;4916624;29;20044;-82
2023/07/04 07:46:11;;;;;;;1.60;1.17;;;;;;;20.90;49.84;100368.63;4908884;29;20051;-82
2023/07/04 07:48:38;;;;;;;2.95;1.50;;;;;;;20.57;49.90;100358.31;4912573;29;20484;-82
2023/07/04 07:51:07;;;;;;;1.95;1.17;;;;;;;20.38;50.82;100361.34;4907978;29;20179;-84
2023/07/04 07:53:36;;;;;;;3.22;1.30;;;;;;;20.21;51.26;100366.00;4909492;29;20044;-80
2023/07/04 07:56:03;;;;;;;4.22;1.40;;;;;;;20.34;52.34;100352.63;4900069;29;20040;-82
2023/07/04 07:58:32;;;;;;;2.80;1.33;;;;;;;20.35;51.47;100361.56;4884263;29;20495;-82
2023/07/04 08:00:59;;;;;;;4.55;1.30;;;;;;;20.73;53.65;100361.72;4892394;29;20100;-83
2023/07/04 08:03:26;;;;;;;2.40;1.40;;;;;;;21.01;51.43;100363.38;4916150;29;20044;-83
2023/07/04 08:05:54;;;;;;;3.00;1.30;;;;;;;21.05;52.43;100367.56;4914863;29;20040;-84
2023/07/04 08:08:22;;;;;;;3.05;1.55;;;;;;;20.81;49.62;100375.47;4904535;29;20056;-80
2023/07/04 08:10:49;;;;;;;2.33;1.60;;;;;;;20.59;48.38;100369.81;4910938;29;20075;-80
2023/07/04 08:13:17;;;;;;;2.47;1.48;;;;;;;21.05;52.67;100360.38;4907465;29;20488;-80
2023/07/04 08:15:55;;;;;;;2.70;1.40;;;;;;;21.37;50.35;100381.50;4899788;29;20572;-82
2023/07/04 08:18:23;;;;;;;3.92;1.42;;;;;;;21.45;48.02;100378.28;4896469;29;20093;-83
2023/07/04 08:20:58;;;;;;;2.20;1.75;;;;;;;21.65;48.13;100388.47;4911823;29;20137;-81
2023/07/04 08:23:25;;;;;;;1.73;1.17;;;;;;;21.78;47.67;100375.91;4898828;29;20052;-82
2023/07/04 08:25:52;;;;;;;2.13;1.23;;;;;;;21.78;48.91;100375.91;4909371;29;20399;-81
2023/07/04 08:28:21;;;;;;;3.80;1.40;;;;;;;21.48;47.41;100391.50;4917700;29;20044;-82
2023/07/04 08:30:49;;;;;;;2.63;1.65;;;;;;;21.39;48.72;100386.78;4914837;29;20040;-83
2023/07/04 08:33:19;;;;;;;4.85;1.92;;;;;;;21.27;49.17;100410.84;4906314;29;20063;-81
2023/07/04 08:35:56;;;;;;;3.97;1.67;;;;;;;21.27;48.38;100394.72;4925356;29;20078;-79
2023/07/04 08:38:30;;;;;;;4.63;1.20;;;;;;;21.59;47.52;100389.78;4915565;29;20064;-81
2023/07/04 08:40:58;;;;;;;1.42;1.13;;;;;;;21.96;47.11;100386.31;4914972;29;20128;-82
2023/07/04 08:43:53;;;;;;;3.08;1.70;;;;;;;21.86;46.73;100384.28;4926971;29;20194;-84
2023/07/04 08:46:40;;;;;;;2.75;1.35;;;;;;;22.38;48.51;100385.03;4915676;29;20044;-80
2023/07/04 08:49:35;;;;;;;4.00;1.35;;;;;;;21.88;46.67;100385.03;4922482;29;20115;-85
2023/07/04 08:52:21;;;;;;;3.67;1.50;;;;;;;21.90;47.04;100387.59;4923298;29;20047;-84
2023/07/04 08:54:50;;;;;;;3.35;1.30;;;;;;;21.95;47.40;100392.66;4912885;29;20115;-82
2023/07/04 08:57:29;;;;;;;2.90;1.20;;;;;;;21.09;46.74;100406.69;4902182;29;20047;-83
2023/07/04 09:00:01;;;;;;;2.08;1.27;;;;;;;20.72;47.82;100398.44;4903217;29;20104;-81
2023/07/04 09:02:51;;;;;;;3.80;1.23;;;;;;;20.60;49.88;100407.31;4904376;29;20072;-82
2023/07/04 09:05:20;;;;;;;4.90;1.27;;;;;;;20.62;49.95;100402.69;4891866;29;20044;-80
2023/07/04 09:08:02;;;;;;;3.65;1.48;;;;;;;20.62;50.53;100401.84;4899907;29;20040;-83
2023/07/04 09:10:41;;;;;;;3.28;1.73;;;;;;;20.96;51.11;100395.94;4913863;29;20468;-80
2023/07/04 09:13:17;;;;;;;2.47;1.33;;;;;;;21.00;49.00;100397.41;4891794;29;20116;-79
2023/07/04 09:15:47;;;;;;;3.80;1.65;;;;;;;20.60;50.30;100396.56;4917582;29;20419;-81
2023/07/04 09:18:39;;;;;;;5.90;1.73;;;;;;;20.77;50.38;100404.38;4915199;29;20056;-83
2023/07/04 09:21:17;;;;;;;1.80;1.30;;;;;;;20.71;50.09;100396.72;4908056;29;20089;-82
2023/07/04 09:23:58;;;;;;;3.58;1.50;;;;;;;21.03;50.69;100396.38;4895978;29;20113;-85
2023/07/04 09:26:32;;;;;;;3.70;1.33;;;;;;;21.45;49.72;100408.72;4890449;29;20060;-81
2023/07/04 09:29:00;;;;;;;3.17;1.50;;;;;;;21.99;47.28;100402.22;4915786;29;20804;-82
2023/07/04 09:31:33;;;;;;;3.35;1.33;;;;;;;22.09;45.84;100389.84;4887422;29;20044;-84
2023/07/04 09:34:04;;;;;;;2.92;1.27;;;;;;;22.24;46.70;100395.94;4902743;29;20044;-84
2023/07/04 09:36:39;;;;;;;2.53;1.30;;;;;;;22.52;46.64;100400.13;4898899;29;20045;-82
2023/07/04 09:39:08;;;;;;;3.20;1.35;;;;;;;22.59;46.56;100399.56;4921564;29;20139;-83
2023/07/04 09:41:39;;;;;;;3.25;1.55;;;;;;;22.86;46.32;100398.50;4900615;29;20040;-80
2023/07/04 09:44:29;;;;;;;3.90;1.50;;;;;;;23.30;44.98;100382.50;4901430;29;20056;-81
2023/07/04 09:47:01;;;;;;;3.38;1.42;;;;;;;23.44;44.59;100380.53;4908853;29;20535;-82
2023/07/04 09:49:31;;;;;;;2.58;1.52;;;;;;;23.74;43.57;100397.03;4890938;29;20045;-81
2023/07/04 09:52:04;;;;;;;3.15;1.67;;;;;;;23.27;43.77;100390.78;4917825;29;20067;-82
2023/07/04 09:54:34;;;;;;;7.22;1.73;;;;;;;23.73;44.14;100395.31;4905926;29;20054;-86
2023/07/04 09:57:23;;;;;;;2.60;1.67;;;;;;;23.75;42.63;100405.97;4899587;29;20054;-80
2023/07/04 09:59:53;;;;;;;2.65;1.45;;;;;;;23.59;43.96;100403.59;4899040;29;20131;-80
2023/07/04 10:02:25;;;;;;;1.95;1.52;;;;;;;23.69;42.69;100399.22;4901648;29;20079;-81
2023/07/04 10:04:53;;;;;;;2.60;1.40;;;;;;;23.66;43.67;100406.72;4905684;29;20044;-81
2023/07/04 10:07:25;;;;;;;2.58;1.20;;;;;;;23.75;42.74;100406.84;4902795;29;20049;-82
2023/07/04 10:09:57;;;;;;;2.75;1.40;;;;;;;24.19;42.52;100401.53;4901228;29;20108;-82
2023/07/04 10:12:27;;;;;;;3.65;1.58;;;;;;;23.88;40.79;100398.66;4906204;29;20567;-82
2023/07/04 10:14:58;;;;;;;3.05;1.60;;;;;;;24.05;42.16;100411.63;4912735;29;20052;-82
2023/07/04 10:17:28;;;;;;;4.22;1.40;;;;;;;23.93;40.91;100404.50;4918659;29;20049;-82
2023/07/04 10:20:08;;;;;;;2.42;1.50;;;;;;;23.39;41.18;100417.81;4930197;29;20039;-80
2023/07/04 10:22:40;;;;;;;3.20;1.48;;;;;;;22.90;41.26;100411.63;4892628;29;20084;-83
2023/07/04 10:25:21;;;;;;;1.98;1.48;;;;;;;22.73;43.92;100417.41;4905682;29;20072;-83
2023/07/04 10:27:55;;;;;;;1.98;1.52;;;;;;;22.32;44.11;100417.78;4898938;29;20072;-83
2023/07/04 10:30:30;;;;;;;2.03;1.40;;;;;;;22.24;45.89;100415.63;4906405;29;20044;-81
2023/07/04 10:33:05;;;;;;;1.85;1.20;;;;;;;22.00;46.34;100425.44;4889805;29;20071;-82
2023/07/04 10:35:36;;;;;;;2.83;1.73;;;;;;;21.84;46.13;100423.84;4904702;29;20392;-81
2023/07/04 10:38:16;;;;;;;3.25;1.60;;;;;;;21.73;47.32;100425.59;4910543;29;20047;-83
2023/07/04 10:40:44;;;;;;;3.72;1.85;;;;;;;21.18;45.26;100432.91;4916367;29;20438;-81
2023/07/04 10:43:25;;;;;;;3.45;1.30;;;;;;;21.18;46.86;100427.53;4903767;29;20048;-82
2023/07/04 10:45:53;;;;;;;3.25;1.20;;;;;;;20.91;46.50;100432.09;4900102;29;20045;-84
2023/07/04 10:48:33;;;;;;;3.72;1.38;;;;;;;20.80;46.66;100422.94;4889608;29;20106;-81
2023/07/04 10:51:05;;;;;;;;;;;;;;;20.70;47.78;100431.72;4920050;29;20048;-81
2023/07/04 10:53:32;;;;;;;2.60;1.38;;;;;;;20.50;47.72;100422.28;4902805;29;19923;-80
2023/07/04 10:56:09;;;;;;;24.50;3.25;;;;;;;20.56;49.55;100423.72;4910410;29;20126;-80
2023/07/04 10:58:43;;;;;;;2.97;1.40;;;;;;;21.04;47.74;100417.75;4897741;29;20068;-81
2023/07/04 11:01:18;;;;;;;2.58;1.20;;;;;;;21.67;47.69;100417.94;4911620;29;20048;-82
2023/07/04 11:04:06;;;;;;;3.15;1.63;;;;;;;22.19;47.88;100415.97;4912672;29;20052;-83
2023/07/04 11:06:42;;;;;;;3.92;1.50;;;;;;;22.46;44.43;100405.03;4928355;29;20087;-80
2023/07/04 11:09:14;;;;;;;2.80;1.70;;;;;;;22.49;42.75;100403.94;4912536;29;20155;-82
2023/07/04 11:11:49;;;;;;;2.22;1.40;;;;;;;22.43;45.00;100402.53;4906758;29;20068;-83
2023/07/04 11:14:25;;;;;;;2.90;1.50;;;;;;;22.41;45.80;100406.31;4907533;29;20143;-81
2023/07/04 11:16:56;;;;;;;2.08;1.25;;;;;;;22.28;46.41;100403.69;4893237;29;20052;-80
2023/07/04 11:19:27;;;;;;;2.40;1.60;;;;;;;22.10;47.11;100415.78;4919247;29;20044;-82
2023/07/04 11:21:54;;;;;;;2.55;1.60;;;;;;;21.83;43.65;100415.91;4903717;29;20473;-81
2023/07/04 11:24:21;;;;;;;2.80;1.30;;;;;;;22.14;44.49;100407.38;4914444;29;20070;-82
2023/07/04 11:27:13;;;;;;;3.25;1.30;;;;;;;22.34;43.13;100421.19;4904276;29;20043;-81
2023/07/04 11:29:57;;;;;;;3.40;1.88;;;;;;;22.35;43.49;100415.69;4928168;29;20101;-83
2023/07/04 11:32:37;;;;;;;1.80;1.50;;;;;;;22.22;42.44;100422.13;4920728;29;20407;-81
2023/07/04 11:35:13;;;;;;;4.13;1.45;;;;;;;21.86;40.94;100429.09;4915197;29;20037;-82
2023/07/04 11:37:51;;;;;;;3.72;1.50;;;;;;;21.56;41.44;100432.16;4898689;29;20048;-80
2023/07/04 11:40:28;;;;;;;2.78;1.40;;;;;;;21.41;43.38;100434.06;4907247;29;20115;-83
2023/07/04 11:42:59;;;;;;;4.68;1.70;;;;;;;21.51;43.89;100428.91;4905248;29;20056;-82
2023/07/04 11:45:29;;;;;;;3.00;1.45;;;;;;;21.57;44.78;100429.34;4897565;29;20042;-81
2023/07/04 11:48:02;;;;;;;3.10;1.75;;;;;;;21.54;44.65;100434.09;4890640;29;20036;-83
2023/07/04 11:50:47;;;;;;;1.98;1.40;;;;;;;21.51;44.50;100439.66;4899038;29;20044;-81
2023/07/04 11:53:36;;;;;;;4.00;1.75;;;;;;;21.39;45.07;100451.28;4918150;29;20059;-87
2023/07/04 11:56:32;;;;;;;2.92;1.33;;;;;;;21.24;46.10;100439.69;4906581;29;20051;-80
2023/07/04 11:59:11;;;;;;;3.15;1.85;;;;;;;21.18;45.75;100442.81;4919451;29;20055;-80
2023/07/04 12:01:58;;;;;;;4.93;1.65;;;;;;;21.22;44.39;100445.19;4909970;29;20044;-83
2023/07/04 12:04:33;;;;;;;3.55;2.13;;;;;;;21.36;44.57;100449.66;4910635;29;20104;-81
2023/07/04 12:07:39;;;;;;;3.33;1.90;;;;;;;21.39;46.09;100448.59;4912291;29;20386;-82
2023/07/04 12:10:18;;;;;;;2.78;1.80;;;;;;;21.34;44.97;100449.75;4885999;29;20119;-82
2023/07/04 12:12:47;;;;;;;3.88;2.17;;;;;;;21.22;44.89;100455.94;4877894;29;1036457;-82
2023/07/04 12:15:20;;;;;;;3.95;1.60;;;;;;;21.07;44.58;100449.75;4924188;29;20450;-82
2023/07/04 12:17:49;;;;;;;3.75;1.60;;;;;;;20.84;45.77;100449.59;4919933;29;20504;-81
2023/07/04 12:20:19;;;;;;;5.28;1.92;;;;;;;20.95;45.04;100464.03;4917768;29;20439;-81
2023/07/04 12:22:52;;;;;;;5.68;2.25;;;;;;;20.92;45.46;100461.53;4898930;29;20343;-81
2023/07/04 12:25:27;;;;;;;7.65;2.33;;;;;;;20.93;44.48;100448.97;4901321;29;20054;-80
2023/07/04 12:27:59;;;;;;;7.53;2.80;;;;;;;20.86;44.91;100455.72;4901186;29;20096;-80
2023/07/04 12:30:26;;;;;;;4.18;2.28;;;;;;;20.92;46.09;100445.41;4907382;29;20048;-81
2023/07/04 12:33:05;;;;;;;4.43;2.10;;;;;;;20.99;46.20;100443.19;4894012;29;20207;-82
2023/07/04 12:35:35;;;;;;;3.22;2.13;;;;;;;21.02;44.98;100451.03;4911985;29;20040;-83
2023/07/04 12:38:02;;;;;;;4.82;2.40;;;;;;;21.08;47.36;100456.84;4911219;29;20046;-83
2023/07/04 12:40:30;;;;;;;4.05;2.25;;;;;;;21.19;45.80;100450.78;4913024;29;20051;-80
2023/07/04 12:43:00;;;;;;;4.45;2.25;;;;;;;21.39;44.67;100452.13;4894229;29;20040;-83
2023/07/04 12:45:29;;;;;;;6.30;2.45;;;;;;;21.49;43.57;100458.59;4891779;29;20044;-80
2023/07/04 12:48:00;;;;;;;4.68;2.05;;;;;;;21.70;43.22;100453.56;4915466;29;20064;-82
2023/07/04 12:50:30;;;;;;;4.57;2.00;;;;;;;21.80;43.13;100443.88;4878292;29;20072;-81